sensor_id;sensor_type;location;lat;lon;timestamp;temperature;humidity
20384;DHT22;46458;50.966;7.002;2022-10-16T00:01:57;15.40;99.90
20384;DHT22;46458;50.966;7.002;2022-10-16T00:04:26;15.40;99.90
20384;DHT22;46458;50.966;7.002;2022-10-16T00:06:57;15.40;99.90
20384;DHT22;46458;50.966;7.002;2022-10-16T00:09:26;15.40;99.90
20384;DHT22;46458;50.966;7.002;2022-10-16T00:11:55;15.30;99.90
20384;DHT22;46458;50.966;7.002;2022-10-16T00:14:26;15.30;99.90
20384;DHT22;46458;50.966;7.002;2022-10-16T00:16:55;15.30;99.90
20384;DHT22;46458;50.966;7.002;2022-10-16T00:19:24;15.30;99.90
20384;DHT22;46458;50.966;7.002;2022-10-16T00:21:53;15.30;99.90
20384;DHT22;46458;50.966;7.002;2022-10-16T00:24:40;15.30;99.90
20384;DHT22;46458;50.966;7.002;2022-10-16T00:27:12;15.40;99.90
20384;DHT22;46458;50.966;7.002;2022-10-16T00:29:43;15.40;99.90
20384;DHT22;46458;50.966;7.002;2022-10-16T00:32:12;15.30;99.90
20384;DHT22;46458;50.966;7.002;2022-10-16T00:34:52;15.30;99.90
20384;DHT22;46458;50.966;7.002;2022-10-16T00:37:21;15.30;99.90
20384;DHT22;46458;50.966;7.002;2022-10-16T00:39:50;15.30;99.90
20384;DHT22;46458;50.966;7.002;2022-10-16T00:42:19;15.30;99.90
20384;DHT22;46458;50.966;7.002;2022-10-16T00:44:55;15.30;99.90
20384;DHT22;46458;50.966;7.002;2022-10-16T00:47:27;15.30;99.90
20384;DHT22;46458;50.966;7.002;2022-10-16T00:50:02;15.30;99.90
20384;DHT22;46458;50.966;7.002;2022-10-16T00:52:31;15.30;99.90
20384;DHT22;46458;50.966;7.002;2022-10-16T00:55:02;15.30;99.90
20384;DHT22;46458;50.966;7.002;2022-10-16T00:57:32;15.30;99.90
20384;DHT22;46458;50.966;7.002;2022-10-16T01:00:08;15.30;99.90
20384;DHT22;46458;50.966;7.002;2022-10-16T01:02:37;15.30;99.90
20384;DHT22;46458;50.966;7.002;2022-10-16T01:05:06;15.20;99.90
20384;DHT22;46458;50.966;7.002;2022-10-16T01:07:44;15.20;99.90
20384;DHT22;46458;50.966;7.002;2022-10-16T01:10:25;15.20;99.90
20384;DHT22;46458;50.966;7.002;2022-10-16T01:12:58;15.20;99.90
20384;DHT22;46458;50.966;7.002;2022-10-16T01:15:34;15.20;99.90
20384;DHT22;46458;50.966;7.002;2022-10-16T01:18:06;15.20;99.90
20384;DHT22;46458;50.966;7.002;2022-10-16T01:20:40;15.20;99.90
20384;DHT22;46458;50.966;7.002;2022-10-16T01:23:21;15.10;99.90
20384;DHT22;46458;50.966;7.002;2022-10-16T01:26:18;15.00;99.90
20384;DHT22;46458;50.966;7.002;2022-10-16T01:28:55;15.50;99.90
20384;DHT22;46458;50.966;7.002;2022-10-16T01:31:30;14.90;99.90
20384;DHT22;46458;50.966;7.002;2022-10-16T01:34:04;14.90;99.90
20384;DHT22;46458;50.966;7.002;2022-10-16T01:36:39;14.80;99.90
20384;DHT22;46458;50.966;7.002;2022-10-16T01:39:13;14.80;99.90
20384;DHT22;46458;50.966;7.002;2022-10-16T01:41:46;14.70;99.90
20384;DHT22;46458;50.966;7.002;2022-10-16T01:44:22;14.70;99.90
20384;DHT22;46458;50.966;7.002;2022-10-16T01:46:54;14.70;99.90
20384;DHT22;46458;50.966;7.002;2022-10-16T01:49:26;14.70;99.90
20384;DHT22;46458;50.966;7.002;2022-10-16T01:51:59;14.70;99.90
20384;DHT22;46458;50.966;7.002;2022-10-16T01:54:31;14.70;99.90
20384;DHT22;46458;50.966;7.002;2022-10-16T01:57:02;14.60;99.90
20384;DHT22;46458;50.966;7.002;2022-10-16T01:59:43;14.60;99.90
20384;DHT22;46458;50.966;7.002;2022-10-16T02:02:13;14.60;99.90
20384;DHT22;46458;50.966;7.002;2022-10-16T02:04:46;14.30;99.90
20384;DHT22;46458;50.966;7.002;2022-10-16T02:07:16;14.70;99.90
20384;DHT22;46458;50.966;7.002;2022-10-16T02:09:45;14.80;99.90
20384;DHT22;46458;50.966;7.002;2022-10-16T02:12:16;14.80;99.90
20384;DHT22;46458;50.966;7.002;2022-10-16T02:14:50;14.80;99.90
20384;DHT22;46458;50.966;7.002;2022-10-16T02:17:20;14.80;99.90
20384;DHT22;46458;50.966;7.002;2022-10-16T02:19:52;14.80;99.90
20384;DHT22;46458;50.966;7.002;2022-10-16T02:22:27;14.80;99.90
20384;DHT22;46458;50.966;7.002;2022-10-16T02:24:58;14.70;99.90
20384;DHT22;46458;50.966;7.002;2022-10-16T02:27:32;14.90;99.90
20384;DHT22;46458;50.966;7.002;2022-10-16T02:30:07;14.90;99.90
20384;DHT22;46458;50.966;7.002;2022-10-16T02:32:39;14.90;99.90
20384;DHT22;46458;50.966;7.002;2022-10-16T02:35:09;14.80;99.90
20384;DHT22;46458;50.966;7.002;2022-10-16T02:37:40;14.90;99.90
20384;DHT22;46458;50.966;7.002;2022-10-16T02:40:10;14.80;99.90
20384;DHT22;46458;50.966;7.002;2022-10-16T02:42:40;14.80;99.90
20384;DHT22;46458;50.966;7.002;2022-10-16T02:45:12;14.80;99.90
20384;DHT22;46458;50.966;7.002;2022-10-16T02:47:41;14.80;99.90
20384;DHT22;46458;50.966;7.002;2022-10-16T02:50:10;14.80;99.90
20384;DHT22;46458;50.966;7.002;2022-10-16T02:52:38;14.80;99.90
20384;DHT22;46458;50.966;7.002;2022-10-16T02:55:08;14.80;99.90
20384;DHT22;46458;50.966;7.002;2022-10-16T02:57:40;14.80;99.90
20384;DHT22;46458;50.966;7.002;2022-10-16T03:00:16;14.80;99.90
20384;DHT22;46458;50.966;7.002;2022-10-16T03:02:45;16.00;99.90
20384;DHT22;46458;50.966;7.002;2022-10-16T03:05:14;14.80;99.90
20384;DHT22;46458;50.966;7.002;2022-10-16T03:07:43;14.80;99.90
20384;DHT22;46458;50.966;7.002;2022-10-16T03:10:11;14.80;99.90
20384;DHT22;46458;50.966;7.002;2022-10-16T03:12:40;14.80;99.90
20384;DHT22;46458;50.966;7.002;2022-10-16T03:15:09;14.80;99.90
20384;DHT22;46458;50.966;7.002;2022-10-16T03:17:41;14.80;99.90
20384;DHT22;46458;50.966;7.002;2022-10-16T03:20:10;14.80;99.90
20384;DHT22;46458;50.966;7.002;2022-10-16T03:22:39;14.80;99.90
20384;DHT22;46458;50.966;7.002;2022-10-16T03:25:08;14.80;99.90
20384;DHT22;46458;50.966;7.002;2022-10-16T03:27:40;14.90;99.90
20384;DHT22;46458;50.966;7.002;2022-10-16T03:30:10;14.80;99.90
20384;DHT22;46458;50.966;7.002;2022-10-16T03:32:41;14.70;99.90
20384;DHT22;46458;50.966;7.002;2022-10-16T03:35:10;14.70;99.90
20384;DHT22;46458;50.966;7.002;2022-10-16T03:37:39;14.70;99.90
20384;DHT22;46458;50.966;7.002;2022-10-16T03:40:08;14.70;99.90
20384;DHT22;46458;50.966;7.002;2022-10-16T03:42:37;14.60;99.90
20384;DHT22;46458;50.966;7.002;2022-10-16T03:45:06;14.60;99.90
20384;DHT22;46458;50.966;7.002;2022-10-16T03:47:36;14.60;99.90
20384;DHT22;46458;50.966;7.002;2022-10-16T03:50:07;14.70;99.90
20384;DHT22;46458;50.966;7.002;2022-10-16T03:52:37;14.70;99.90
20384;DHT22;46458;50.966;7.002;2022-10-16T03:55:07;14.70;99.90
20384;DHT22;46458;50.966;7.002;2022-10-16T03:57:35;14.70;99.90
20384;DHT22;46458;50.966;7.002;2022-10-16T04:00:06;14.70;99.90
20384;DHT22;46458;50.966;7.002;2022-10-16T04:02:40;14.70;99.90
20384;DHT22;46458;50.966;7.002;2022-10-16T04:05:12;14.70;99.90
20384;DHT22;46458;50.966;7.002;2022-10-16T04:07:40;14.70;99.90
20384;DHT22;46458;50.966;7.002;2022-10-16T04:10:09;14.70;99.90
20384;DHT22;46458;50.966;7.002;2022-10-16T04:12:39;14.80;99.90
20384;DHT22;46458;50.966;7.002;2022-10-16T04:15:08;14.80;99.90
20384;DHT22;46458;50.966;7.002;2022-10-16T04:17:37;14.80;99.90
20384;DHT22;46458;50.966;7.002;2022-10-16T04:20:07;14.80;99.90
20384;DHT22;46458;50.966;7.002;2022-10-16T04:22:38;14.50;99.90
20384;DHT22;46458;50.966;7.002;2022-10-16T04:25:10;14.90;99.90
20384;DHT22;46458;50.966;7.002;2022-10-16T04:27:39;14.90;99.90
20384;DHT22;46458;50.966;7.002;2022-10-16T04:30:09;14.90;99.90
20384;DHT22;46458;50.966;7.002;2022-10-16T04:32:38;14.90;99.90
20384;DHT22;46458;50.966;7.002;2022-10-16T04:35:08;14.90;99.90
20384;DHT22;46458;50.966;7.002;2022-10-16T04:37:40;14.90;99.90
20384;DHT22;46458;50.966;7.002;2022-10-16T04:40:09;14.90;99.90
20384;DHT22;46458;50.966;7.002;2022-10-16T04:42:38;14.90;99.90
20384;DHT22;46458;50.966;7.002;2022-10-16T04:45:07;14.90;99.90
20384;DHT22;46458;50.966;7.002;2022-10-16T04:47:36;14.90;99.90
20384;DHT22;46458;50.966;7.002;2022-10-16T04:50:06;14.90;99.90
20384;DHT22;46458;50.966;7.002;2022-10-16T04:52:35;15.00;99.90
20384;DHT22;46458;50.966;7.002;2022-10-16T04:55:07;14.90;99.90
20384;DHT22;46458;50.966;7.002;2022-10-16T04:57:36;15.00;99.90
20384;DHT22;46458;50.966;7.002;2022-10-16T05:00:06;14.90;99.90
20384;DHT22;46458;50.966;7.002;2022-10-16T05:02:35;14.90;99.90
20384;DHT22;46458;50.966;7.002;2022-10-16T05:05:07;14.90;99.90
20384;DHT22;46458;50.966;7.002;2022-10-16T05:07:36;14.90;99.90
20384;DHT22;46458;50.966;7.002;2022-10-16T05:10:09;14.90;99.90
20384;DHT22;46458;50.966;7.002;2022-10-16T05:12:37;14.90;99.90
20384;DHT22;46458;50.966;7.002;2022-10-16T05:15:08;14.90;99.90
20384;DHT22;46458;50.966;7.002;2022-10-16T05:17:37;14.90;99.90
20384;DHT22;46458;50.966;7.002;2022-10-16T05:20:06;14.90;99.90
20384;DHT22;46458;50.966;7.002;2022-10-16T05:22:35;15.00;99.90
20384;DHT22;46458;50.966;7.002;2022-10-16T05:25:09;15.00;99.90
20384;DHT22;46458;50.966;7.002;2022-10-16T05:27:38;14.90;99.90
20384;DHT22;46458;50.966;7.002;2022-10-16T05:30:07;15.00;99.90
20384;DHT22;46458;50.966;7.002;2022-10-16T05:32:36;15.00;99.90
20384;DHT22;46458;50.966;7.002;2022-10-16T05:35:06;15.00;99.90
20384;DHT22;46458;50.966;7.002;2022-10-16T05:37:37;15.00;99.90
20384;DHT22;46458;50.966;7.002;2022-10-16T05:40:10;14.90;99.90
20384;DHT22;46458;50.966;7.002;2022-10-16T05:42:39;14.90;99.90
20384;DHT22;46458;50.966;7.002;2022-10-16T05:45:10;14.90;99.90
20384;DHT22;46458;50.966;7.002;2022-10-16T05:47:39;14.90;99.90
20384;DHT22;46458;50.966;7.002;2022-10-16T05:50:08;14.90;99.90
20384;DHT22;46458;50.966;7.002;2022-10-16T05:52:37;14.90;99.90
20384;DHT22;46458;50.966;7.002;2022-10-16T05:55:09;14.80;99.90
20384;DHT22;46458;50.966;7.002;2022-10-16T05:57:38;14.80;99.90
20384;DHT22;46458;50.966;7.002;2022-10-16T06:00:11;14.80;99.90
20384;DHT22;46458;50.966;7.002;2022-10-16T06:02:40;14.80;99.90
20384;DHT22;46458;50.966;7.002;2022-10-16T06:05:08;14.80;99.90
20384;DHT22;46458;50.966;7.002;2022-10-16T06:07:37;14.80;99.90
20384;DHT22;46458;50.966;7.002;2022-10-16T06:10:10;14.80;99.90
20384;DHT22;46458;50.966;7.002;2022-10-16T06:12:39;14.80;99.90
20384;DHT22;46458;50.966;7.002;2022-10-16T06:15:08;14.80;99.90
20384;DHT22;46458;50.966;7.002;2022-10-16T06:17:37;14.70;99.90
20384;DHT22;46458;50.966;7.002;2022-10-16T06:20:06;14.70;99.90
20384;DHT22;46458;50.966;7.002;2022-10-16T06:22:35;14.70;99.90
20384;DHT22;46458;50.966;7.002;2022-10-16T06:25:05;14.70;99.90
20384;DHT22;46458;50.966;7.002;2022-10-16T06:27:38;14.80;99.90
20384;DHT22;46458;50.966;7.002;2022-10-16T06:30:08;14.70;99.90
20384;DHT22;46458;50.966;7.002;2022-10-16T06:32:37;14.80;99.90
20384;DHT22;46458;50.966;7.002;2022-10-16T06:35:07;14.80;99.90
20384;DHT22;46458;50.966;7.002;2022-10-16T06:37:35;14.90;99.90
20384;DHT22;46458;50.966;7.002;2022-10-16T06:40:05;14.90;99.90
20384;DHT22;46458;50.966;7.002;2022-10-16T06:42:37;14.90;99.90
20384;DHT22;46458;50.966;7.002;2022-10-16T06:45:07;15.00;99.90
20384;DHT22;46458;50.966;7.002;2022-10-16T06:47:36;15.00;99.90
20384;DHT22;46458;50.966;7.002;2022-10-16T06:50:08;15.10;99.90
20384;DHT22;46458;50.966;7.002;2022-10-16T06:52:37;15.10;99.90
20384;DHT22;46458;50.966;7.002;2022-10-16T06:55:06;15.10;99.90
20384;DHT22;46458;50.966;7.002;2022-10-16T06:57:38;15.20;99.90
20384;DHT22;46458;50.966;7.002;2022-10-16T07:00:08;15.20;99.90
20384;DHT22;46458;50.966;7.002;2022-10-16T07:02:36;15.30;99.90
20384;DHT22;46458;50.966;7.002;2022-10-16T07:05:06;15.30;99.90
20384;DHT22;46458;50.966;7.002;2022-10-16T07:07:35;15.30;99.90
20384;DHT22;46458;50.966;7.002;2022-10-16T07:10:04;15.30;99.90
20384;DHT22;46458;50.966;7.002;2022-10-16T07:12:33;15.40;99.90
20384;DHT22;46458;50.966;7.002;2022-10-16T07:15:05;15.40;99.90
20384;DHT22;46458;50.966;7.002;2022-10-16T07:17:34;15.50;99.90
20384;DHT22;46458;50.966;7.002;2022-10-16T07:20:05;15.50;99.90
20384;DHT22;46458;50.966;7.002;2022-10-16T07:22:34;15.60;99.90
20384;DHT22;46458;50.966;7.002;2022-10-16T07:25:03;15.60;99.90
20384;DHT22;46458;50.966;7.002;2022-10-16T07:27:38;15.60;99.90
20384;DHT22;46458;50.966;7.002;2022-10-16T07:30:10;15.70;99.90
20384;DHT22;46458;50.966;7.002;2022-10-16T07:32:39;15.60;99.90
20384;DHT22;46458;50.966;7.002;2022-10-16T07:35:08;15.70;99.90
20384;DHT22;46458;50.966;7.002;2022-10-16T07:37:37;15.70;99.90
20384;DHT22;46458;50.966;7.002;2022-10-16T07:40:07;15.70;99.90
20384;DHT22;46458;50.966;7.002;2022-10-16T07:42:36;15.80;99.90
20384;DHT22;46458;50.966;7.002;2022-10-16T07:45:09;15.80;99.90
20384;DHT22;46458;50.966;7.002;2022-10-16T07:47:38;15.80;99.90
20384;DHT22;46458;50.966;7.002;2022-10-16T07:50:08;15.80;99.90
20384;DHT22;46458;50.966;7.002;2022-10-16T07:52:37;15.80;99.90
20384;DHT22;46458;50.966;7.002;2022-10-16T07:55:09;15.90;99.90
20384;DHT22;46458;50.966;7.002;2022-10-16T07:57:38;15.90;99.90
20384;DHT22;46458;50.966;7.002;2022-10-16T08:00:11;16.00;99.90
20384;DHT22;46458;50.966;7.002;2022-10-16T08:02:40;16.00;99.90
20384;DHT22;46458;50.966;7.002;2022-10-16T08:05:09;16.00;99.90
20384;DHT22;46458;50.966;7.002;2022-10-16T08:07:38;16.10;99.90
20384;DHT22;46458;50.966;7.002;2022-10-16T08:10:09;16.10;99.90
20384;DHT22;46458;50.966;7.002;2022-10-16T08:12:39;16.10;99.90
20384;DHT22;46458;50.966;7.002;2022-10-16T08:15:14;16.30;99.90
20384;DHT22;46458;50.966;7.002;2022-10-16T08:17:43;16.40;99.90
20384;DHT22;46458;50.966;7.002;2022-10-16T08:20:15;16.50;99.90
20384;DHT22;46458;50.966;7.002;2022-10-16T08:22:43;16.70;99.90
20384;DHT22;46458;50.966;7.002;2022-10-16T08:25:15;17.00;99.90
20384;DHT22;46458;50.966;7.002;2022-10-16T08:27:43;17.20;99.90
20384;DHT22;46458;50.966;7.002;2022-10-16T08:30:16;17.50;99.90
20384;DHT22;46458;50.966;7.002;2022-10-16T08:32:45;17.70;99.90
20384;DHT22;46458;50.966;7.002;2022-10-16T08:35:14;17.90;99.90
20384;DHT22;46458;50.966;7.002;2022-10-16T08:37:44;18.30;99.90
20384;DHT22;46458;50.966;7.002;2022-10-16T08:40:18;18.60;99.90
20384;DHT22;46458;50.966;7.002;2022-10-16T08:43:09;19.40;99.90
20384;DHT22;46458;50.966;7.002;2022-10-16T08:45:55;20.10;99.90
20384;DHT22;46458;50.966;7.002;2022-10-16T08:48:34;20.40;99.90
20384;DHT22;46458;50.966;7.002;2022-10-16T08:51:05;21.00;99.90
20384;DHT22;46458;50.966;7.002;2022-10-16T08:53:46;21.80;99.90
20384;DHT22;46458;50.966;7.002;2022-10-16T08:56:18;22.10;99.90
20384;DHT22;46458;50.966;7.002;2022-10-16T08:58:51;22.60;99.90
20384;DHT22;46458;50.966;7.002;2022-10-16T09:01:23;22.20;99.90
20384;DHT22;46458;50.966;7.002;2022-10-16T09:04:21;24.60;99.90
20384;DHT22;46458;50.966;7.002;2022-10-16T09:06:57;23.60;99.90
20384;DHT22;46458;50.966;7.002;2022-10-16T09:09:47;22.90;99.90
20384;DHT22;46458;50.966;7.002;2022-10-16T09:12:21;24.10;99.90
20384;DHT22;46458;50.966;7.002;2022-10-16T09:15:05;24.00;99.90
20384;DHT22;46458;50.966;7.002;2022-10-16T09:17:48;22.40;99.90
20384;DHT22;46458;50.966;7.002;2022-10-16T09:20:28;22.00;99.90
20384;DHT22;46458;50.966;7.002;2022-10-16T09:23:10;22.00;99.90
20384;DHT22;46458;50.966;7.002;2022-10-16T09:25:44;22.40;99.90
20384;DHT22;46458;50.966;7.002;2022-10-16T09:28:13;22.60;99.90
20384;DHT22;46458;50.966;7.002;2022-10-16T09:30:42;22.20;99.90
20384;DHT22;46458;50.966;7.002;2022-10-16T09:33:15;22.10;99.90
20384;DHT22;46458;50.966;7.002;2022-10-16T09:35:45;23.50;99.90
20384;DHT22;46458;50.966;7.002;2022-10-16T09:38:26;24.60;99.90
20384;DHT22;46458;50.966;7.002;2022-10-16T09:40:57;26.80;99.90
20384;DHT22;46458;50.966;7.002;2022-10-16T09:43:30;28.00;99.90
20384;DHT22;46458;50.966;7.002;2022-10-16T09:46:22;25.50;99.90
20384;DHT22;46458;50.966;7.002;2022-10-16T09:48:56;25.30;99.90
20384;DHT22;46458;50.966;7.002;2022-10-16T09:51:27;26.50;99.90
20384;DHT22;46458;50.966;7.002;2022-10-16T09:53:59;26.50;99.90
20384;DHT22;46458;50.966;7.002;2022-10-16T09:56:29;25.90;99.90
20384;DHT22;46458;50.966;7.002;2022-10-16T09:58:59;27.50;99.90
20384;DHT22;46458;50.966;7.002;2022-10-16T10:01:36;28.60;99.90
20384;DHT22;46458;50.966;7.002;2022-10-16T10:04:09;28.60;99.90
20384;DHT22;46458;50.966;7.002;2022-10-16T10:06:43;28.00;99.90
20384;DHT22;46458;50.966;7.002;2022-10-16T10:09:20;28.50;99.90
20384;DHT22;46458;50.966;7.002;2022-10-16T10:11:52;27.50;99.90
20384;DHT22;46458;50.966;7.002;2022-10-16T10:14:27;27.40;99.90
20384;DHT22;46458;50.966;7.002;2022-10-16T10:17:10;26.30;99.90
20384;DHT22;46458;50.966;7.002;2022-10-16T10:19:49;27.00;99.90
20384;DHT22;46458;50.966;7.002;2022-10-16T10:22:25;27.20;99.90
20384;DHT22;46458;50.966;7.002;2022-10-16T10:25:24;28.40;99.90
20384;DHT22;46458;50.966;7.002;2022-10-16T10:28:21;26.40;99.90
20384;DHT22;46458;50.966;7.002;2022-10-16T10:30:59;24.60;99.90
20384;DHT22;46458;50.966;7.002;2022-10-16T10:33:40;25.80;99.90
20384;DHT22;46458;50.966;7.002;2022-10-16T10:36:23;25.80;99.90
20384;DHT22;46458;50.966;7.002;2022-10-16T10:38:58;23.50;99.90
20384;DHT22;46458;50.966;7.002;2022-10-16T10:44:33;21.90;99.90
20384;DHT22;46458;50.966;7.002;2022-10-16T10:47:13;21.10;99.90
20384;DHT22;46458;50.966;7.002;2022-10-16T10:49:53;20.90;99.90
20384;DHT22;46458;50.966;7.002;2022-10-16T10:52:38;20.80;99.90
20384;DHT22;46458;50.966;7.002;2022-10-16T10:55:22;20.70;99.90
20384;DHT22;46458;50.966;7.002;2022-10-16T10:58:08;20.70;99.90
20384;DHT22;46458;50.966;7.002;2022-10-16T11:00:45;20.60;99.90
20384;DHT22;46458;50.966;7.002;2022-10-16T11:03:28;21.20;99.90
20384;DHT22;46458;50.966;7.002;2022-10-16T11:06:04;21.50;99.90
20384;DHT22;46458;50.966;7.002;2022-10-16T11:08:40;21.50;99.90
20384;DHT22;46458;50.966;7.002;2022-10-16T11:11:14;20.90;99.90
20384;DHT22;46458;50.966;7.002;2022-10-16T11:13:51;20.70;99.90
20384;DHT22;46458;50.966;7.002;2022-10-16T11:16:27;20.40;99.90
20384;DHT22;46458;50.966;7.002;2022-10-16T11:19:03;20.30;99.90
20384;DHT22;46458;50.966;7.002;2022-10-16T11:21:38;20.30;99.90
20384;DHT22;46458;50.966;7.002;2022-10-16T11:24:22;20.60;99.90
20384;DHT22;46458;50.966;7.002;2022-10-16T11:26:53;20.70;99.90
20384;DHT22;46458;50.966;7.002;2022-10-16T11:29:25;20.80;99.90
20384;DHT22;46458;50.966;7.002;2022-10-16T11:31:59;20.80;99.90
20384;DHT22;46458;50.966;7.002;2022-10-16T11:34:36;20.70;99.90
20384;DHT22;46458;50.966;7.002;2022-10-16T11:37:14;20.30;99.90
20384;DHT22;46458;50.966;7.002;2022-10-16T11:39:49;20.20;99.90
20384;DHT22;46458;50.966;7.002;2022-10-16T11:42:22;20.20;99.90
20384;DHT22;46458;50.966;7.002;2022-10-16T11:44:57;20.10;99.90
20384;DHT22;46458;50.966;7.002;2022-10-16T11:47:35;20.10;99.90
20384;DHT22;46458;50.966;7.002;2022-10-16T11:50:13;20.20;99.90
20384;DHT22;46458;50.966;7.002;2022-10-16T11:52:52;20.30;99.90
20384;DHT22;46458;50.966;7.002;2022-10-16T11:55:29;20.40;99.90
20384;DHT22;46458;50.966;7.002;2022-10-16T11:58:03;20.40;99.90
20384;DHT22;46458;50.966;7.002;2022-10-16T12:00:37;20.40;99.90
20384;DHT22;46458;50.966;7.002;2022-10-16T12:03:15;20.40;99.90
20384;DHT22;46458;50.966;7.002;2022-10-16T12:06:14;20.40;99.90
20384;DHT22;46458;50.966;7.002;2022-10-16T12:08:47;20.40;99.90
20384;DHT22;46458;50.966;7.002;2022-10-16T12:11:35;20.50;99.90
20384;DHT22;46458;50.966;7.002;2022-10-16T12:14:07;20.50;99.90
20384;DHT22;46458;50.966;7.002;2022-10-16T12:16:56;20.50;99.90
20384;DHT22;46458;50.966;7.002;2022-10-16T12:19:28;20.60;99.90
20384;DHT22;46458;50.966;7.002;2022-10-16T12:21:59;20.60;99.90
20384;DHT22;46458;50.966;7.002;2022-10-16T12:24:35;20.70;99.90
20384;DHT22;46458;50.966;7.002;2022-10-16T12:27:28;20.80;99.90
20384;DHT22;46458;50.966;7.002;2022-10-16T12:29:58;20.90;99.90
20384;DHT22;46458;50.966;7.002;2022-10-16T12:32:32;21.00;99.90
20384;DHT22;46458;50.966;7.002;2022-10-16T12:35:03;21.10;99.90
20384;DHT22;46458;50.966;7.002;2022-10-16T12:37:34;21.20;99.90
20384;DHT22;46458;50.966;7.002;2022-10-16T12:40:13;21.20;99.90
20384;DHT22;46458;50.966;7.002;2022-10-16T12:42:47;21.40;99.90
20384;DHT22;46458;50.966;7.002;2022-10-16T12:45:30;21.50;99.90
20384;DHT22;46458;50.966;7.002;2022-10-16T12:48:01;21.60;99.90
20384;DHT22;46458;50.966;7.002;2022-10-16T12:50:33;21.50;99.90
20384;DHT22;46458;50.966;7.002;2022-10-16T12:53:16;21.30;99.90
20384;DHT22;46458;50.966;7.002;2022-10-16T12:55:52;21.30;99.90
20384;DHT22;46458;50.966;7.002;2022-10-16T12:58:48;21.10;99.90
20384;DHT22;46458;50.966;7.002;2022-10-16T13:01:29;21.10;99.90
20384;DHT22;46458;50.966;7.002;2022-10-16T13:07:31;21.00;99.90
20384;DHT22;46458;50.966;7.002;2022-10-16T13:10:15;20.90;99.90
20384;DHT22;46458;50.966;7.002;2022-10-16T13:13:05;20.80;99.90
20384;DHT22;46458;50.966;7.002;2022-10-16T13:15:55;20.90;99.90
20384;DHT22;46458;50.966;7.002;2022-10-16T13:18:35;20.90;99.90
20384;DHT22;46458;50.966;7.002;2022-10-16T13:21:16;20.90;99.90
20384;DHT22;46458;50.966;7.002;2022-10-16T13:23:53;20.90;99.90
20384;DHT22;46458;50.966;7.002;2022-10-16T13:26:32;20.90;99.90
20384;DHT22;46458;50.966;7.002;2022-10-16T13:29:02;20.70;99.90
20384;DHT22;46458;50.966;7.002;2022-10-16T13:31:36;20.80;99.90
20384;DHT22;46458;50.966;7.002;2022-10-16T13:34:11;20.80;99.90
20384;DHT22;46458;50.966;7.002;2022-10-16T13:36:45;20.90;99.90
20384;DHT22;46458;50.966;7.002;2022-10-16T13:39:21;20.90;99.90
20384;DHT22;46458;50.966;7.002;2022-10-16T13:42:04;20.80;99.90
20384;DHT22;46458;50.966;7.002;2022-10-16T13:44:38;20.70;99.90
20384;DHT22;46458;50.966;7.002;2022-10-16T13:47:17;20.70;99.90
20384;DHT22;46458;50.966;7.002;2022-10-16T13:49:59;20.60;99.90
20384;DHT22;46458;50.966;7.002;2022-10-16T13:52:28;20.50;99.90
20384;DHT22;46458;50.966;7.002;2022-10-16T13:55:03;20.50;99.90
20384;DHT22;46458;50.966;7.002;2022-10-16T13:57:32;21.60;99.90
20384;DHT22;46458;50.966;7.002;2022-10-16T14:00:01;20.60;99.90
20384;DHT22;46458;50.966;7.002;2022-10-16T14:02:35;20.60;99.90
20384;DHT22;46458;50.966;7.002;2022-10-16T14:05:09;20.60;99.90
20384;DHT22;46458;50.966;7.002;2022-10-16T14:07:39;20.60;99.90
20384;DHT22;46458;50.966;7.002;2022-10-16T14:10:22;20.60;99.90
20384;DHT22;46458;50.966;7.002;2022-10-16T14:12:56;20.50;99.90
20384;DHT22;46458;50.966;7.002;2022-10-16T14:15:25;20.40;99.90
20384;DHT22;46458;50.966;7.002;2022-10-16T14:17:58;20.30;99.90
20384;DHT22;46458;50.966;7.002;2022-10-16T14:20:29;20.20;99.90
20384;DHT22;46458;50.966;7.002;2022-10-16T14:23:00;20.20;99.90
20384;DHT22;46458;50.966;7.002;2022-10-16T14:25:31;20.20;99.90
20384;DHT22;46458;50.966;7.002;2022-10-16T14:28:02;20.20;99.90
20384;DHT22;46458;50.966;7.002;2022-10-16T14:30:33;20.20;99.90
20384;DHT22;46458;50.966;7.002;2022-10-16T14:33:06;20.20;99.90
20384;DHT22;46458;50.966;7.002;2022-10-16T14:35:59;20.20;99.90
20384;DHT22;46458;50.966;7.002;2022-10-16T14:38:32;20.30;99.90
20384;DHT22;46458;50.966;7.002;2022-10-16T14:41:04;20.30;99.90
20384;DHT22;46458;50.966;7.002;2022-10-16T14:43:35;20.30;99.90
20384;DHT22;46458;50.966;7.002;2022-10-16T14:46:09;20.40;99.90
20384;DHT22;46458;50.966;7.002;2022-10-16T14:48:45;20.30;99.90
20384;DHT22;46458;50.966;7.002;2022-10-16T14:51:16;20.30;99.90
20384;DHT22;46458;50.966;7.002;2022-10-16T14:53:45;20.40;99.90
20384;DHT22;46458;50.966;7.002;2022-10-16T14:56:17;20.40;99.90
20384;DHT22;46458;50.966;7.002;2022-10-16T14:58:46;20.30;99.90
20384;DHT22;46458;50.966;7.002;2022-10-16T15:01:16;20.30;99.90
20384;DHT22;46458;50.966;7.002;2022-10-16T15:03:49;20.20;99.90
20384;DHT22;46458;50.966;7.002;2022-10-16T15:06:21;20.10;99.90
20384;DHT22;46458;50.966;7.002;2022-10-16T15:08:49;20.10;99.90
20384;DHT22;46458;50.966;7.002;2022-10-16T15:11:19;20.00;99.90
20384;DHT22;46458;50.966;7.002;2022-10-16T15:13:48;20.00;99.90
20384;DHT22;46458;50.966;7.002;2022-10-16T15:16:17;19.90;99.90
20384;DHT22;46458;50.966;7.002;2022-10-16T15:18:48;19.90;99.90
20384;DHT22;46458;50.966;7.002;2022-10-16T15:21:24;19.90;99.90
20384;DHT22;46458;50.966;7.002;2022-10-16T15:23:53;19.80;99.90
20384;DHT22;46458;50.966;7.002;2022-10-16T15:26:25;19.80;99.90
20384;DHT22;46458;50.966;7.002;2022-10-16T15:28:54;19.60;99.90
20384;DHT22;46458;50.966;7.002;2022-10-16T15:31:24;19.60;99.90
20384;DHT22;46458;50.966;7.002;2022-10-16T15:33:55;19.60;99.90
20384;DHT22;46458;50.966;7.002;2022-10-16T15:36:30;19.50;99.90
20384;DHT22;46458;50.966;7.002;2022-10-16T15:39:00;19.50;99.90
20384;DHT22;46458;50.966;7.002;2022-10-16T15:41:34;19.40;99.90
20384;DHT22;46458;50.966;7.002;2022-10-16T15:44:03;19.40;99.90
20384;DHT22;46458;50.966;7.002;2022-10-16T15:46:32;19.40;99.90
20384;DHT22;46458;50.966;7.002;2022-10-16T15:49:05;19.40;99.90
20384;DHT22;46458;50.966;7.002;2022-10-16T15:51:37;19.30;99.90
20384;DHT22;46458;50.966;7.002;2022-10-16T15:54:06;19.30;99.90
20384;DHT22;46458;50.966;7.002;2022-10-16T15:56:35;19.30;99.90
20384;DHT22;46458;50.966;7.002;2022-10-16T15:59:04;19.30;99.90
20384;DHT22;46458;50.966;7.002;2022-10-16T16:01:42;19.20;99.90
20384;DHT22;46458;50.966;7.002;2022-10-16T16:04:13;19.20;99.90
20384;DHT22;46458;50.966;7.002;2022-10-16T16:06:42;19.10;99.90
20384;DHT22;46458;50.966;7.002;2022-10-16T16:09:11;19.10;99.90
20384;DHT22;46458;50.966;7.002;2022-10-16T16:11:41;19.10;99.90
20384;DHT22;46458;50.966;7.002;2022-10-16T16:14:15;19.00;99.90